createdAt,value
2023-01-30T00:43:52.209Z,2.9
2023-01-30T00:53:54.569Z,2.9
2023-01-30T01:24:00.317Z,3.1
2023-01-30T02:14:11.529Z,3.3
2023-01-30T02:34:15.414Z,3.5
2023-01-30T03:54:31.971Z,4.4
2023-01-30T04:04:34.529Z,4.4
2023-01-30T04:14:36.834Z,4.4
2023-01-30T04:34:40.983Z,4.4
2023-01-30T05:04:47.992Z,4.5
2023-01-30T05:14:50.092Z,4.6
2023-01-30T06:05:01.417Z,4.9
2023-01-30T06:15:03.632Z,5
2023-01-30T06:35:08.477Z,5.5
2023-01-30T06:45:11.001Z,5.6
2023-01-30T06:55:13.237Z,5.7
2023-01-30T07:05:14.885Z,5.8
2023-01-30T07:35:22.147Z,6
2023-01-30T07:45:24.151Z,6
2023-01-30T07:55:26.317Z,6
2023-01-30T08:15:30.555Z,6.1
2023-01-30T08:25:32.818Z,6
2023-01-30T08:35:34.684Z,6
2023-01-30T08:45:37.202Z,6
2023-01-30T09:05:41.789Z,6.1
2023-01-30T09:25:46.195Z,6.1
2023-01-30T11:26:13.157Z,6.4
2023-01-30T11:36:14.922Z,6.6
2023-01-30T11:56:19.269Z,6.6
2023-01-30T12:16:22.736Z,6.4
2023-01-30T12:26:25.150Z,6.8
2023-01-30T12:36:27.473Z,7
2023-01-30T12:46:29.926Z,7
2023-01-30T12:56:31.978Z,7.1
2023-01-30T13:06:34.373Z,7.2
2023-01-30T13:16:36.325Z,7.3
2023-01-30T13:26:38.201Z,7.3
2023-01-30T13:36:47.898Z,7.4
2023-01-30T13:56:51.707Z,7.5
2023-01-30T14:06:53.711Z,7.4
2023-01-30T14:26:58.796Z,7.5
2023-01-30T14:37:00.726Z,7.3
2023-01-30T15:07:07.183Z,5.9
2023-01-30T15:17:09.294Z,6.1
2023-01-30T15:27:11.644Z,6.4
2023-01-30T15:37:14.245Z,6.4
2023-01-30T15:47:16.798Z,6.4
2023-01-30T15:57:18.635Z,6.4
2023-01-30T16:07:20.595Z,6.6
2023-01-30T16:17:22.605Z,6.7
2023-01-30T16:27:24.365Z,6.7
2023-01-30T16:37:26.460Z,6.7
2023-01-30T16:47:28.335Z,6.7
2023-01-30T16:57:30.565Z,6.6
2023-01-30T17:07:32.739Z,6.6
2023-01-30T17:17:34.605Z,6.5
2023-01-30T17:37:38.772Z,6.3
2023-01-30T17:47:40.824Z,6.1
2023-01-30T17:57:42.938Z,6.1
2023-01-30T18:07:45.136Z,6.1
2023-01-30T18:17:47.858Z,5.9
2023-01-30T18:27:49.774Z,5.8
2023-01-30T18:37:52.212Z,5.6
2023-01-30T18:47:54.477Z,5.6
2023-01-30T18:57:56.446Z,5.5
2023-01-30T19:07:58.801Z,5.2
2023-01-30T19:18:00.603Z,5.1
2023-01-30T19:28:02.947Z,5
2023-01-30T19:38:04.990Z,4.8
2023-01-30T19:48:07.043Z,4.7
2023-01-30T19:58:09.213Z,4.6
2023-01-30T20:08:21.888Z,4.5
2023-01-30T20:18:14.001Z,4.5
2023-01-30T20:28:16.237Z,4.4
2023-01-30T20:58:22.412Z,3.9
2023-01-30T22:18:39.726Z,3.8
2023-01-30T22:38:43.669Z,3.3
2023-01-30T22:58:48.445Z,3
2023-01-30T23:08:50.184Z,2.9
2023-01-30T23:18:51.948Z,2.8
2023-01-30T23:59:01.225Z,2.8
